Flight Track Log - Related Links

Times and Time Zones

All times are in EDT time to prevent confusion due to time zone crossing. See the N30JC flight status page for this flight to view local times or setup timezone preferences in your user account.

Time Position Orientation Groundspeed Altitude Reporting Facility
EDT Latitude Longitude Course Direction KTS MPH feet Rate Location/Type
Sat 07:26:00 AM 37.0660 -80.0236 193° South  Level FlightAware Approximate
Sat 07:27:00 AM 37.0237 -80.0328 177° South  Level FlightAware Approximate
Sat 07:28:00 AM 36.9806 -80.0302 177° South  Level FlightAware Approximate
Sat 07:29:00 AM 36.9374 -80.0277 177° South  Level FlightAware Approximate
Sat 07:30:00 AM 36.8943 -80.0251 177° South  Level FlightAware Approximate
Sat 07:31:00 AM 36.8511 -80.0226 177° South  Level FlightAware Approximate
Sat 07:32:00 AM 36.8080 -80.0201 177° South  Level FlightAware Approximate
Sat 07:33:00 AM 36.7649 -80.0175 177° South  Level FlightAware Approximate
Sat 07:34:00 AM 36.7217 -80.0167 180° South  Level FlightAware Approximate
Sat 07:35:00 AM 36.6786 -80.0143 177° South  Level FlightAware Approximate
Sat 07:36:00 AM 36.6354 -80.0116 177° South  Level FlightAware Approximate
Sat 07:37:00 AM 36.5923 -80.0089 177° South  Level FlightAware Approximate
Sat 07:38:00 AM 36.5492 -80.0062 177° South  Level FlightAware Approximate
Sat 07:39:00 AM 36.5060 -80.0035 177° South  Level FlightAware Approximate
Sat 07:40:00 AM 36.4629 -80.0008 177° South  Level FlightAware Approximate
Sat 07:41:00 AM 36.4199 -79.9962 174° South  Level FlightAware Approximate
Sat 07:42:00 AM 36.3769 -79.9909 174° South  Level FlightAware Approximate
Sat 07:43:00 AM 36.3339 -79.9855 174° South  Level FlightAware Approximate
Sat 07:44:00 AM 36.2909 -79.9818 177° South  Level FlightAware Approximate
Sat 07:45:00 AM 36.2477 -79.9793 177° South  Level FlightAware Approximate
Sat 07:46:00 AM 36.2046 -79.9767 177° South  Level FlightAware Approximate
Sat 07:47:00 AM 36.1614 -79.9742 177° South  Level FlightAware Approximate
Sat 07:48:00 AM 36.1183 -79.9716 177° South  Level FlightAware Approximate
Sat 07:49:00 AM 36.0751 -79.9691 177° South  Level FlightAware Approximate
Sat 07:50:00 AM 36.0320 -79.9670 191° South  Level FlightAware Approximate
Sat 07:51:00 AM 35.9897 -79.9776 191° South  Level FlightAware Approximate
Sat 07:52:00 AM 35.9474 -79.9882 191° South  Level FlightAware Approximate
Sat 07:53:00 AM 35.9051 -79.9988 191° South  Level FlightAware Approximate
Sat 07:54:00 AM 35.8627 -80.0094 191° South  Level FlightAware Approximate
Sat 07:55:00 AM 35.8204 -80.0200 191° South  Level FlightAware Approximate
Sat 07:56:00 AM 35.7781 -80.0305 191° South  Level FlightAware Approximate
Sat 07:57:00 AM 35.7357 -80.0411 191° South  Level FlightAware Approximate
Sat 07:58:00 AM 35.6934 -80.0513 189° South  Level FlightAware Approximate
Sat 07:59:00 AM 35.6507 -80.0599 189° South  Level FlightAware Approximate
Sat 08:00:00 AM 35.6081 -80.0684 189° South  Level FlightAware Approximate
Sat 08:01:00 AM 35.5655 -80.0770 189° South  Level FlightAware Approximate
Sat 08:02:00 AM 35.5229 -80.0855 189° South  Level FlightAware Approximate
Sat 08:02:08 AM 35.6622 -80.0617 192° South 147 169 6,000  Level Atlanta Center
Sat 08:03:00 AM 35.4802 -80.0940 189° South  Level FlightAware Approximate
Sat 08:03:21 AM 35.6103 -80.0717 189° South 148 170 6,000  Level Atlanta Center
Sat 08:04:00 AM 35.4375 -80.1000 180° South  Level FlightAware Approximate
Sat 08:04:22 AM 35.5711 -80.0839 194° South 146 168 6,000  Level Atlanta Center
Sat 08:05:00 AM 35.3944 -80.1014 192° South  Level FlightAware Approximate
Sat 08:05:24 AM 35.5317 -80.0908 188° South 148 170 6,000  Level Atlanta Center
Sat 08:06:00 AM 35.3521 -80.1120 192° South  Level FlightAware Approximate
Sat 08:06:24 AM 35.4881 -80.0981 188° South 147 169 6,000  Level Atlanta Center
Sat 08:07:00 AM 35.3097 -80.1226 192° South  Level FlightAware Approximate
Sat 08:07:25 AM 35.4489 -80.1103 194° South 146 168 6,000  Level Atlanta Center
Sat 08:08:33 AM 35.4053 -80.1147 185° South 147 169 6,000  Level Atlanta Center
Sat 08:09:34 AM 35.3597 -80.1272 193° South 149 171 6,000  Level Atlanta Center
Sat 08:10:35 AM 35.3181 -80.1342 188° South 149 171 6,000  Level Atlanta Center
Sat 08:11:30 AM 35.2808 -80.1411 189° South 150 173 6,000  Level Atlanta Center
Sat 08:12:37 AM 35.2375 -80.1533 193° South 148 170 6,000  Level Atlanta Center
Sat 08:13:38 AM 35.1978 -80.1578 185° South 147 169 6,000  Level Atlanta Center
Sat 08:14:39 AM 35.1544 -80.1672 190° South 148 170 6,000  Level Atlanta Center
Sat 08:15:41 AM 35.1128 -80.1744 188° South 147 169 6,000  Level Atlanta Center
Sat 08:16:42 AM 35.0733 -80.1814 188° South 146 168 6,000  Level Atlanta Center
Sat 08:17:43 AM 35.0322 -80.1933 193° South 148 170 6,000  Level Atlanta Center
Sat 08:19:00 AM 34.9776 -80.2050 190° South  Level FlightAware Approximate
Sat 08:26:00 AM 34.6791 -80.2625 187° South  Level FlightAware Approximate
Sat 08:27:00 AM 34.6362 -80.2690 188° South  Level FlightAware Approximate
Sat 08:28:00 AM 34.5934 -80.2761 188° South  Level FlightAware Approximate
Sat 08:29:00 AM 34.5507 -80.2832 188° South  Level FlightAware Approximate
Sat 08:30:00 AM 34.5077 -80.2883 186° South  Level FlightAware Approximate
Sat 08:31:00 AM 34.4647 -80.2934 186° South  Level FlightAware Approximate
Sat 08:32:00 AM 34.4217 -80.2985 186° South  Level FlightAware Approximate
Sat 08:33:00 AM 34.3787 -80.3035 186° South  Level FlightAware Approximate
Sat 08:34:00 AM 34.3357 -80.3086 186° South  Level FlightAware Approximate
Sat 08:35:00 AM 34.2927 -80.3136 186° South  Level FlightAware Approximate
Sat 08:36:00 AM 34.2497 -80.3167 180° South  Level FlightAware Approximate
Sat 08:37:00 AM 34.2071 -80.3232 192° South  Level FlightAware Approximate
Sat 08:38:00 AM 34.1647 -80.3333 180° South  Level FlightAware Approximate
Sat 08:39:00 AM 34.1219 -80.3390 189° South  Level FlightAware Approximate
Sat 08:40:00 AM 34.0793 -80.3475 189° South  Level FlightAware Approximate
Sat 08:41:00 AM 34.0363 -80.3500 180° South  Level FlightAware Approximate
Sat 08:42:00 AM 33.9931 -80.3500 180° South  Level FlightAware Approximate
Sat 08:43:00 AM 33.9833 -80.3500 180° South  Level FlightAware Approximate
Sat 08:44:00 AM 33.9950 -80.3613 180° South  Level Estimated

Login

Don't have an account? Register now (free) for customized features, flight alerts, and more!